Date,TemperatureHighF,TemperatureAvgF,TemperatureLowF,DewpointHighF,DewpointAvgF,DewpointLowF,HumidityHigh,HumidityAvg,HumidityLow,PressureMaxIn,PressureMinIn,WindSpeedMaxMPH,WindSpeedAvgMPH,GustSpeedMaxMPH,PrecipitationSumIn
2014-1-1,47.7,35.8,27.0,31.3,25.0,17.0,77,65,52,30.47,30.19,2,0,2,0.00
2014-1-2,39.1,34.1,31.0,33.1,29.5,26.5,89,83,78,30.17,29.66,2,0,2,0.03
2014-1-3,31.0,21.3,15.5,28.2,11.8,5.0,89,68,47,30.55,29.68,5,1,5,0.00
2014-1-4,33.3,23.0,14.0,19.2,12.9,5.8,74,65,54,30.58,30.31,4,1,4,0.00
2014-1-5,39.6,35.8,27.4,36.3,29.8,18.5,89,79,68,30.31,29.77,3,0,3,0.02
2014-1-6,46.1,35.3,10.8,43.7,25.6,-5.6,91,69,44,30.13,29.54,6,2,6,0.08
2014-1-7,18.4,10.4,5.2,-0.9,-6.5,-9.6,50,46,41,30.43,30.14,7,2,7,0.00
2014-1-8,25.6,24.5,23.9,12.0,9.8,9.3,56,53,51,30.57,30.56,0,0,0,0.00
2014-1-10,35.6,35.2,34.9,31.8,31.4,31.1,86,86,86,30.46,30.45,2,0,2,0.00
2014-1-12,40.3,38.5,37.4,30.6,29.8,29.3,74,71,68,30.15,30.13,1,0,1,0.00
2014-1-13,54.0,52.3,51.5,39.8,39.3,38.4,63,61,58,29.98,29.91,7,2,7,0.00
2014-1-14,52.7,46.0,37.3,43.8,41.0,34.0,89,83,61,29.96,29.75,7,1,7,0.17
2014-1-15,47.0,40.9,36.9,42.8,36.3,30.6,91,84,67,30.03,29.91,6,1,6,0.01
2014-1-16,39.4,34.8,29.5,31.8,24.2,20.0,81,66,48,30.07,29.93,7,1,7,0.00
2014-1-17,47.9,37.4,27.9,33.0,28.6,22.8,82,71,53,30.02,29.83,5,1,5,0.00
2014-1-18,37.6,29.9,22.9,31.9,18.0,10.2,80,62,47,30.04,29.82,8,2,8,0.00
2014-1-19,48.6,35.1,21.6,29.7,21.2,11.2,71,57,46,30.02,29.79,10,2,10,0.00
2014-1-20,56.7,44.2,36.5,32.3,28.1,24.8,63,54,37,29.93,29.69,7,2,7,0.00
2014-1-21,37.6,29.0,16.2,27.6,21.8,6.4,84,75,62,29.93,29.77,6,1,6,0.00
2014-1-22,17.5,13.4,7.6,6.4,0.5,-2.5,65,56,49,30.15,29.93,7,1,9,0.00
2014-1-23,28.4,17.1,7.2,13.1,3.9,-1.6,70,56,43,30.48,30.14,10,1,10,0.00
2014-1-24,23.4,16.6,9.2,4.7,1.2,-3.0,58,51,42,30.59,30.13,13,2,13,0.00
2014-1-25,33.1,26.9,20.5,21.2,10.7,3.3,66,50,43,30.13,29.51,13,3,13,0.00
2014-1-26,34.2,26.7,16.7,15.2,11.4,4.6,69,52,41,29.97,29.69,6,1,6,0.00
2014-1-27,50.9,35.3,22.0,34.9,19.4,3.8,63,52,34,30.24,29.68,8,3,8,0.00
2014-1-28,21.8,16.7,12.6,4.4,-1.5,-4.9,66,44,40,30.50,30.24,8,2,8,0.00
2014-1-29,24.5,17.2,11.7,6.3,2.0,-3.0,72,52,38,30.42,30.26,4,1,7,0.00
2014-1-30,32.2,22.0,11.5,10.4,5.0,-1.2,64,49,36,30.52,30.23,5,0,5,0.00
2014-1-31,48.2,34.1,22.7,20.2,15.6,9.6,60,48,29,30.25,30.16,4,0,4,0.00
2014-2-1,51.5,47.0,40.0,30.2,25.5,21.1,65,44,34,30.32,30.04,4,1,4,0.01
2014-2-2,59.9,50.4,34.2,36.7,33.3,24.7,70,53,40,30.11,29.96,2,0,2,0.00
2014-2-3,49.0,39.3,32.6,38.6,33.7,27.5,88,81,62,30.39,30.04,5,1,5,1.25
2014-2-4,38.5,33.1,28.1,27.5,24.6,22.1,83,71,59,30.53,30.19,4,1,4,0.02
2014-2-5,40.1,34.3,31.1,34.7,29.5,22.0,87,83,63,30.20,29.74,8,1,8,0.01
2014-2-6,36.7,31.8,28.3,22.5,19.4,17.2,67,60,48,30.40,30.14,8,1,8,0.00
2014-2-7,44.1,33.8,24.7,27.1,21.5,16.8,75,61,49,30.40,30.29,1,0,1,0.00
2014-2-8,34.7,30.6,24.5,20.4,16.9,13.8,70,57,45,30.40,30.24,1,0,1,0.00
2014-2-9,36.4,31.1,23.6,26.8,22.3,15.6,80,70,62,30.25,30.04,4,0,4,0.00
2014-2-10,33.8,29.2,23.4,25.7,16.5,10.7,80,59,47,30.40,30.09,6,1,6,0.00
2014-2-11,32.8,25.3,19.4,14.0,10.8,8.5,65,54,43,30.53,30.39,6,1,6,0.00
2014-2-12,31.0,24.3,17.5,20.9,12.5,6.3,83,61,46,30.58,30.17,5,1,5,0.00
2014-2-13,36.9,32.5,25.0,33.7,29.2,20.4,90,88,82,30.17,29.34,6,2,6,0.97
2014-2-14,53.6,39.8,30.2,34.9,29.2,23.2,84,67,46,29.77,29.39,6,1,7,0.27
2014-2-15,38.3,35.1,28.8,32.0,27.2,16.3,85,73,58,30.00,29.65,12,2,12,0.09
2014-2-16,40.1,32.0,25.6,22.7,18.0,13.0,72,56,45,30.26,29.99,6,1,6,0.00
2014-2-17,38.5,29.4,22.7,21.8,15.1,11.4,73,56,38,30.50,30.26,6,1,6,0.00
2014-2-18,58.7,39.3,27.0,34.8,27.2,17.9,84,64,39,30.30,30.05,10,2,11,0.04
2014-2-19,44.3,37.8,32.9,36.9,29.0,25.2,80,71,65,30.11,29.86,7,1,7,0.01
2014-2-20,56.0,47.1,32.9,37.9,31.2,25.5,80,56,35,30.30,29.99,6,0,6,0.00
2014-2-21,68.2,47.9,38.2,59.7,41.2,33.7,86,78,70,30.02,29.68,9,1,9,0.02
2014-2-22,66.6,47.1,32.6,39.0,30.9,26.2,87,58,27,30.17,30.02,11,2,11,0.01
2014-2-23,66.2,51.6,44.8,36.5,32.1,28.5,68,48,31,30.07,29.90,10,2,10,0.00
2014-2-24,46.8,39.8,29.5,35.5,19.2,10.8,73,45,27,30.20,29.96,8,2,8,0.00
2014-2-25,40.9,32.0,27.7,29.8,20.3,11.3,78,62,48,30.19,30.04,5,0,5,0.07
2014-2-26,40.1,30.8,23.0,28.8,17.8,7.4,81,60,40,30.07,29.90,9,1,9,0.02
2014-2-27,41.8,29.2,19.6,22.1,11.2,3.0,65,48,30,30.19,29.72,12,2,12,0.00
2014-2-28,31.7,20.9,12.8,3.5,-0.1,-3.8,48,40,27,30.49,30.19,5,1,8,0.00
2014-3-1,46.1,32.3,17.6,23.3,15.7,2.9,69,51,38,30.44,30.22,8,0,8,0.00
2014-3-2,53.3,41.2,33.8,35.7,30.2,22.0,86,66,47,30.23,30.01,3,0,3,0.22
2014-3-3,36.4,23.4,12.2,32.5,16.7,4.3,87,76,56,30.41,30.04,6,1,6,0.15
2014-3-4,34.7,22.3,11.3,13.8,9.1,3.7,73,58,36,30.48,30.29,4,0,4,0.01
2014-3-5,51.1,32.9,18.7,25.1,16.8,11.6,81,54,29,30.45,30.24,5,1,5,0.11
2014-3-6,37.1,30.8,24.1,22.5,17.3,11.5,70,57,47,30.63,30.41,5,1,5,0.00
2014-3-7,47.2,37.2,29.9,32.7,27.0,22.0,75,67,56,30.42,29.97,5,1,5,0.05
2014-3-8,67.7,47.1,29.0,42.7,32.8,22.1,80,59,37,30.03,29.91,7,1,7,0.00
2014-3-9,54.9,46.3,39.6,36.5,27.2,18.4,65,48,30,30.17,29.94,6,0,6,0.00
2014-3-10,62.3,47.2,38.3,36.6,29.0,20.5,60,50,33,30.06,29.70,5,0,5,0.00
2014-3-11,73.1,55.5,45.4,45.4,37.3,29.1,60,51,37,29.77,29.67,4,0,4,0.00
2014-3-12,67.1,52.3,34.2,56.2,40.7,20.1,82,65,52,29.68,29.09,10,2,15,0.01
2014-3-13,38.3,29.3,21.4,20.5,8.0,1.6,58,41,28,30.24,29.53,12,3,12,0.00
2014-3-14,59.6,42.2,23.9,27.5,18.7,6.8,54,40,28,30.29,29.93,10,2,10,0.00
2014-3-15,70.2,56.1,46.3,38.8,27.9,22.4,44,35,19,30.10,29.87,13,2,13,0.01
2014-3-16,48.2,40.7,29.3,28.4,25.1,21.7,86,56,37,30.23,30.09,6,1,6,0.00
2014-3-17,32.8,29.0,25.2,26.3,23.7,21.5,89,80,71,30.15,30.04,5,1,5,0.00
2014-3-18,46.4,37.0,28.4,30.2,24.9,20.0,78,62,50,30.28,30.11,6,1,6,0.15
2014-3-19,42.7,39.1,35.6,38.5,33.3,26.8,89,80,63,30.28,29.91,5,1,5,0.16
2014-3-20,62.6,49.3,40.9,46.0,34.0,24.4,91,61,27,30.06,29.86,10,2,10,0.02
2014-3-21,58.7,47.6,39.4,40.8,33.0,23.8,75,57,44,30.14,30.06,5,1,5,0.00
2014-3-22,72.4,53.9,39.6,43.9,36.0,29.1,79,55,23,30.07,29.87,10,2,10,0.00
2014-3-23,50.2,44.1,34.6,30.7,25.6,11.4,57,48,38,30.24,30.05,7,2,7,0.00
2014-3-24,45.0,32.7,23.8,16.3,11.3,8.6,52,41,29,30.38,30.19,11,1,11,0.00
2014-3-25,37.1,32.4,27.2,32.5,25.4,13.4,86,76,52,30.20,29.90,5,0,5,0.15
2014-3-26,39.8,32.2,27.9,27.4,17.4,8.8,87,57,33,30.37,29.93,11,2,11,0.02
2014-3-27,54.4,38.1,22.0,26.7,19.2,9.8,65,48,31,30.50,30.24,12,1,12,0.04
2014-3-28,66.6,55.2,42.1,53.6,43.9,26.6,83,66,52,30.24,30.04,16,3,16,0.00
2014-3-29,61.6,57.2,53.1,57.7,52.9,50.0,91,86,70,30.15,29.60,6,1,6,0.82
2014-3-30,53.3,41.6,33.5,50.4,38.4,30.5,90,88,81,29.85,29.53,8,2,8,1.36
2014-3-31,67.9,52.4,40.5,39.0,34.7,31.5,80,54,30,30.14,29.85,7,2,7,0.00
2014-4-1,70.0,54.0,40.5,43.0,35.5,27.7,65,51,34,30.23,30.01,8,1,8,0.00
2014-4-2,67.7,53.4,41.6,48.4,41.9,35.6,81,66,48,30.17,30.03,5,0,5,0.00
2014-4-3,69.7,58.9,52.2,52.7,45.5,40.9,79,62,49,30.16,29.99,5,1,5,0.00
2014-4-4,63.2,54.5,48.8,52.3,44.9,40.4,83,70,58,30.00,29.74,6,1,6,0.02
2014-4-5,58.9,51.9,44.3,45.6,36.4,28.0,87,58,37,30.21,29.74,8,2,8,0.00
2014-4-6,62.8,48.6,32.9,35.5,25.9,19.0,71,44,21,30.31,30.18,5,1,5,0.00
2014-4-7,50.8,45.9,40.5,47.0,38.4,25.1,89,76,46,30.22,29.67,5,1,5,0.36
2014-4-8,66.4,56.1,47.2,54.8,45.0,35.9,90,69,43,29.73,29.52,8,2,8,0.02
2014-4-9,68.0,55.3,42.7,41.4,35.7,28.5,75,51,28,30.10,29.72,8,1,8,0.00
2014-4-10,73.6,58.8,40.0,45.2,35.3,28.2,67,43,29,30.27,30.07,14,2,14,0.00
2014-4-11,82.6,68.2,60.3,51.8,44.2,38.4,69,43,25,30.12,29.94,9,2,10,0.00
2014-4-12,74.3,64.6,56.2,51.0,46.7,36.5,77,55,26,30.31,30.08,4,1,4,0.00
2014-4-13,85.5,77.5,63.9,58.8,56.6,54.6,73,50,38,30.19,30.01,12,3,12,0.00
2014-4-14,77.2,74.1,71.3,56.4,54.7,53.8,55,51,48,29.90,29.86,8,2,8,0.00
2014-4-15,41.6,38.2,35.1,37.4,34.2,31.2,87,86,84,30.01,29.82,9,3,9,0.20
2014-4-16,45.2,42.4,39.1,22.2,20.3,18.5,46,41,37,30.50,30.44,6,2,6,0.00
2014-4-24,66.6,56.9,42.5,28.4,26.9,21.2,54,34,23,30.50,30.04,4,1,5,0.00
2014-4-25,69.1,60.1,52.4,48.8,45.2,40.2,83,61,38,29.98,29.76,8,1,8,0.36
2014-4-26,79.0,70.9,62.3,50.9,48.1,46.0,61,45,34,29.94,29.79,13,2,13,0.02
2014-4-27,68.6,56.8,47.9,46.6,36.9,32.9,58,48,33,30.12,29.93,4,1,4,0.00
2014-4-28,53.1,50.3,48.6,45.0,43.5,37.3,84,78,61,30.14,30.06,2,0,2,0.06
2014-4-29,48.6,48.3,47.9,45.5,45.1,44.6,89,88,88,30.23,30.18,3,1,3,0.07
2014-4-30,64.8,61.9,59.0,62.2,59.3,56.4,91,91,90,29.96,29.87,4,1,4,0.17
2014-5-1,80.5,68.3,57.2,67.9,57.8,43.9,91,71,48,29.90,29.72,7,1,7,0.07
2014-5-2,74.7,67.5,59.8,46.5,42.5,39.6,54,41,34,29.93,29.83,8,1,8,0.00
2014-5-3,77.6,64.8,53.5,49.7,44.0,40.0,68,48,30,29.93,29.77,8,1,8,0.00
2014-5-4,81.2,65.4,52.2,48.1,43.1,39.3,64,46,28,29.98,29.74,12,2,12,0.00
2014-5-5,67.9,57.7,47.0,45.5,37.5,31.0,80,49,32,30.10,29.92,5,1,5,0.15
2014-5-6,78.8,61.7,50.4,54.6,47.2,41.2,83,62,31,30.09,29.94,4,0,4,0.00
2014-5-7,67.9,58.8,51.3,55.0,48.0,41.5,79,68,45,30.32,30.09,4,0,4,0.12
2014-5-8,91.8,71.1,55.8,68.9,58.6,49.3,82,67,38,30.19,30.03,5,0,5,0.00
2014-5-9,79.7,68.5,60.7,65.6,59.8,54.7,81,74,61,30.17,29.99,4,1,4,0.00
2014-5-10,79.9,71.7,66.6,66.5,62.6,60.0,80,73,61,30.06,29.93,12,2,12,0.00
2014-5-11,88.6,78.0,67.0,58.3,52.1,49.5,59,41,29,30.19,30.10,5,1,5,0.00
2014-5-12,91.6,74.3,59.9,69.0,61.4,52.4,81,66,43,30.18,30.08,7,1,8,0.11
2014-5-13,94.9,77.2,63.9,72.7,64.9,58.1,87,68,44,30.23,30.09,5,1,5,0.00
2014-5-14,67.0,62.9,58.3,60.3,56.7,52.8,83,80,73,30.28,30.17,3,1,3,0.00
2014-5-15,83.2,71.5,63.0,69.5,63.5,57.7,86,76,61,30.18,29.94,8,1,8,0.29
2014-5-16,77.2,63.8,50.9,62.2,54.7,46.8,87,73,48,29.99,29.78,6,1,6,1.51
2014-5-17,72.0,61.2,51.1,50.0,44.4,40.8,74,55,38,30.20,29.99,8,1,8,0.00
2014-5-18,73.6,60.9,52.0,45.4,40.5,35.5,64,48,32,30.29,30.20,6,1,6,0.00
2014-5-19,74.7,60.9,47.3,46.8,40.9,37.0,68,50,33,30.34,30.22,3,1,3,0.00
2014-5-20,83.0,69.2,54.7,51.0,46.2,39.7,64,45,29,30.25,30.04,6,1,6,0.00
2014-5-21,82.1,69.5,60.5,63.2,57.6,50.8,80,67,49,30.05,29.93,2,0,2,0.11
2014-5-22,90.9,75.3,61.6,69.2,60.2,52.2,83,62,39,29.94,29.80,5,1,5,0.00
2014-5-23,82.8,70.0,58.3,55.6,49.7,43.7,66,49,35,30.07,29.93,6,2,6,0.00
2014-5-24,85.9,67.5,55.1,56.5,49.9,43.9,69,54,37,30.16,30.05,8,1,8,0.00
2014-5-25,89.3,72.0,56.3,59.2,51.4,47.6,75,51,28,30.22,30.13,5,0,5,0.00
2014-5-26,89.6,75.9,60.8,66.2,58.3,49.0,76,56,36,30.18,30.01,6,1,6,0.00
2014-5-27,93.2,76.8,64.1,70.5,63.1,58.2,82,65,43,30.02,29.88,9,1,9,0.72
2014-5-28,90.0,73.6,59.4,71.6,63.2,52.6,84,71,49,30.13,29.89,6,1,6,0.05
2014-5-29,59.4,54.8,53.1,52.6,49.2,47.9,84,82,78,30.24,30.12,3,0,3,0.25
2014-5-30,80.6,63.2,53.3,61.3,54.1,48.6,86,74,49,30.20,30.11,4,0,4,0.01
2014-5-31,89.6,70.6,55.6,59.8,50.9,46.3,78,53,26,30.31,30.14,5,1,5,0.00
2014-6-1,83.3,68.1,54.0,60.0,52.5,47.0,79,59,39,30.41,30.28,4,1,4,0.00
2014-6-2,86.8,70.9,56.5,62.5,54.7,47.5,73,58,43,30.33,30.10,6,2,7,0.00
2014-6-3,92.9,76.8,65.3,71.8,63.4,56.1,73,64,46,30.11,29.88,5,1,5,0.01
2014-6-4,90.9,76.7,63.5,68.2,61.5,56.9,79,62,36,29.91,29.73,5,0,5,0.25
2014-6-5,65.5,64.4,61.6,60.2,58.5,55.2,83,81,79,29.74,29.63,5,1,5,0.05
2014-6-6,87.1,76.0,64.4,58.6,53.9,51.6,64,47,37,30.04,29.95,5,1,5,0.00
2014-6-7,92.5,73.7,58.0,64.4,55.9,50.0,76,56,34,30.09,29.98,5,0,5,0.00
2014-6-8,86.6,75.1,61.9,66.2,60.9,53.4,75,62,46,30.03,29.86,7,1,7,0.02
2014-6-9,87.8,75.2,64.1,72.0,65.1,57.8,83,72,56,29.94,29.88,5,1,5,0.22
2014-6-10,91.1,76.2,70.2,73.8,66.6,62.4,80,72,55,29.98,29.89,3,1,4,0.08
2014-6-11,89.8,75.5,65.9,73.8,65.7,59.2,81,72,57,30.05,29.94,4,1,4,0.27
2014-6-12,81.0,71.9,65.9,69.0,63.8,60.1,83,76,67,30.03,29.88,5,1,5,0.07
2014-6-13,86.0,72.9,67.3,71.9,63.5,57.6,80,73,60,29.91,29.79,5,1,5,0.47
2014-6-14,83.9,71.3,64.6,61.0,55.7,51.8,71,59,39,30.16,29.90,6,1,6,0.00
2014-6-15,93.2,72.7,56.9,63.5,55.5,47.2,71,56,36,30.24,30.12,7,1,7,0.00
2014-6-16,97.6,79.9,62.1,72.4,63.7,53.0,74,59,41,30.18,30.08,5,0,5,0.00
2014-6-17,98.6,85.0,70.2,74.3,68.2,59.1,69,58,42,30.16,29.99,7,1,7,0.00
2014-6-18,102.1,87.4,76.9,75.5,70.3,65.5,68,58,42,30.06,29.98,7,1,7,0.00
2014-6-19,90.4,80.7,71.6,75.2,66.8,60.8,70,63,54,30.08,29.97,7,1,7,0.00
2014-6-20,95.4,76.9,65.9,61.4,57.5,52.2,73,53,29,30.10,29.97,4,1,4,0.00
2014-6-21,74.5,70.9,66.2,62.2,59.0,56.3,71,66,59,29.98,29.91,3,0,3,0.00
2014-6-22,89.5,73.7,63.4,66.8,60.0,55.3,77,64,42,30.06,29.92,4,0,4,0.04
2014-6-23,89.1,75.3,61.6,66.5,59.4,52.8,75,59,38,30.19,30.06,6,1,6,0.00
2014-6-24,93.4,77.7,65.5,71.1,63.7,55.5,70,63,47,30.19,30.04,8,1,8,0.00
2014-6-25,92.5,79.9,68.8,74.7,67.3,60.1,75,66,53,30.06,29.85,6,1,6,0.29
2014-6-26,96.1,79.1,67.7,69.9,64.4,60.4,78,62,38,30.02,29.88,6,1,6,0.01
2014-6-27,92.7,79.4,68.6,72.0,65.1,57.5,68,62,50,30.23,30.02,5,1,5,0.00
2014-6-28,93.2,77.5,63.9,67.0,60.2,53.9,70,57,39,30.32,30.23,4,1,4,0.00
2014-6-29,94.3,77.7,64.4,67.7,58.4,53.8,69,53,32,30.30,30.16,7,1,7,0.25
2014-6-30,128.5,86.8,67.7,74.6,64.9,56.5,68,52,18,30.16,29.97,0,0,0,0.15
2014-7-1,130.0,89.2,68.6,80.8,68.7,58.3,70,55,20,30.02,29.86,0,0,0,0.00
2014-7-2,119.5,86.7,71.8,78.7,70.5,63.5,77,60,28,29.99,29.87,0,0,0,0.00
2014-7-3,93.6,76.0,69.5,77.1,67.3,60.3,83,75,57,30.02,29.92,0,0,0,0.00
2014-7-4,87.8,73.0,65.9,67.5,58.7,50.5,84,63,35,30.22,29.99,10,1,10,0.61
2014-7-5,92.5,74.1,61.6,56.7,51.6,48.9,64,47,29,30.31,30.21,6,1,6,0.00
2014-7-6,92.2,76.7,61.9,63.8,57.6,50.4,67,53,34,30.20,29.99,7,1,7,0.00
2014-7-7,95.8,83.3,71.6,68.6,64.2,59.2,65,54,39,29.99,29.84,8,2,8,0.00
2014-7-8,97.4,82.5,67.9,71.7,65.3,57.1,75,57,42,29.93,29.75,9,2,9,0.16
2014-7-9,98.5,74.9,68.4,75.6,63.8,57.2,78,69,46,30.02,29.87,8,1,8,0.13
2014-7-10,94.7,76.9,67.3,73.8,63.8,55.5,75,65,51,30.11,30.00,5,1,5,0.14
2014-7-11,89.5,77.5,64.3,69.8,62.6,55.3,73,61,53,30.25,30.16,3,0,3,0.01
2014-7-12,97.7,80.7,67.7,74.1,63.3,54.8,66,56,45,30.26,30.14,7,1,7,0.00
2014-7-13,99.5,85.7,71.5,75.0,65.9,54.5,59,52,45,30.16,29.94,7,2,7,0.03
2014-7-14,94.3,79.6,72.0,73.6,61.4,55.0,61,54,47,30.00,29.83,5,1,5,0.21
2014-7-15,92.2,78.9,69.8,67.2,53.4,43.9,55,42,35,29.85,29.75,6,1,6,1.59
2014-7-16,86.2,73.5,65.2,62.4,49.5,33.0,55,43,30,29.98,29.81,4,1,4,0.01
2014-7-17,92.9,73.9,64.3,64.2,52.3,40.5,54,47,37,30.17,29.97,5,1,5,0.00
2014-7-18,86.8,75.0,62.8,63.5,50.9,31.4,54,43,30,30.28,30.17,2,0,2,0.00
2014-7-19,85.9,77.6,69.8,62.5,55.4,38.5,54,47,32,30.25,30.17,4,1,4,0.00
2014-7-20,85.9,75.7,69.3,64.9,43.8,28.6,50,33,21,30.17,30.11,2,0,2,0.00
2014-7-21,87.8,77.5,69.1,65.5,44.4,25.9,48,32,19,30.23,30.15,3,1,3,0.00
2014-7-22,96.1,79.6,69.5,73.3,42.2,19.1,50,29,13,30.24,30.11,6,1,6,0.00
2014-7-23,98.5,82.5,70.4,74.4,43.4,14.3,51,29,10,30.11,29.83,7,1,7,0.00
2014-7-24,82.4,75.6,68.2,61.3,37.9,12.4,51,30,8,29.99,29.88,3,0,3,0.00
2014-7-25,97.6,73.7,60.1,67.4,46.3,19.9,53,39,21,30.12,29.99,5,1,5,0.00
2014-7-26,100.1,78.8,69.1,67.8,45.7,13.8,51,33,12,30.05,29.91,5,1,5,0.00
2014-7-27,91.6,77.9,69.3,65.7,26.8,10.5,43,16,5,29.92,29.67,8,1,8,0.04
2014-7-28,85.7,77.6,70.0,63.9,41.8,11.0,53,32,2,29.86,29.62,9,2,9,0.00
2014-7-29,81.0,69.9,63.0,54.6,47.3,33.5,55,45,32,30.06,29.85,6,1,6,0.00
2014-7-30,89.6,70.8,57.6,61.4,47.7,25.7,54,44,28,30.13,30.05,6,1,6,0.00
2014-7-31,91.1,76.0,62.3,65.8,47.3,8.6,52,39,12,30.17,30.09,5,1,5,0.00
2014-8-1,81.0,74.8,66.6,55.7,32.0,11.5,44,23,6,30.25,30.16,5,1,5,0.02
2014-8-2,84.4,72.5,63.0,57.6,23.7,5.7,41,16,3,30.22,30.10,3,0,3,0.11
2014-8-3,90.5,76.3,67.7,68.8,26.2,9.3,49,14,1,30.13,30.04,4,0,4,0.41
2014-8-4,97.2,75.8,65.9,71.9,29.5,7.8,50,17,1,30.15,30.08,4,1,4,0.01
2014-8-5,97.4,78.9,66.8,67.4,37.4,8.6,50,23,1,30.12,29.97,5,0,5,0.01
2014-8-6,85.0,74.8,65.2,64.9,30.3,7.2,51,19,1,30.01,29.94,3,0,5,0.15
2014-8-7,86.4,75.3,67.1,61.4,36.8,8.8,52,27,1,30.09,29.97,3,1,3,0.00
2014-8-8,85.5,74.6,62.8,63.0,40.5,5.5,52,32,1,30.18,30.09,4,0,4,0.00
2014-8-9,86.8,75.3,64.3,65.3,30.8,6.6,49,19,1,30.16,30.11,5,0,5,0.00
2014-8-10,87.3,76.9,65.9,66.5,38.2,7.8,51,27,1,30.19,30.10,4,1,4,0.00
2014-8-11,84.8,73.5,62.5,64.2,29.0,5.2,51,19,1,30.16,30.05,7,1,7,0.03
2014-8-12,79.2,72.0,68.4,17.9,12.5,9.8,1,1,1,30.05,29.79,6,0,6,0.94
2014-8-13,83.5,75.7,68.8,61.7,34.3,10.8,50,23,1,29.95,29.77,5,1,5,0.00
2014-8-14,84.1,72.2,58.5,61.9,38.7,2.1,53,32,1,30.00,29.88,10,1,10,0.00
2014-8-15,81.9,70.2,59.9,56.3,47.2,27.6,53,44,29,30.07,29.97,5,1,5,0.00
2014-8-16,83.7,73.1,61.7,57.3,45.1,4.7,51,38,1,30.07,29.97,9,1,9,0.00
2014-8-17,87.5,77.7,69.8,61.5,32.3,10.8,42,19,1,29.98,29.90,8,1,8,0.00
2014-8-18,86.0,77.3,68.0,63.5,31.8,9.5,47,19,1,29.98,29.83,3,0,3,0.00
2014-8-19,86.4,76.4,69.8,51.3,20.4,10.8,31,6,1,29.96,29.83,3,0,3,0.00
2014-8-20,89.3,74.1,66.4,67.3,21.6,-8.6,49,10,1,30.06,29.95,7,1,7,0.18
2014-8-21,90.4,75.0,66.2,64.4,18.9,8.1,43,6,1,30.10,30.01,4,0,4,0.06
2014-8-22,86.0,75.3,69.1,23.2,15.0,10.3,1,1,1,30.04,29.98,3,0,3,0.02
2014-8-23,73.6,70.4,67.9,13.8,11.3,9.4,1,1,1,30.13,30.01,2,0,2,0.24
2014-8-24,81.4,72.3,65.2,60.2,23.6,7.2,49,14,1,30.19,30.12,3,0,3,0.00
2014-8-25,82.6,71.7,60.8,61.5,29.1,4.0,51,21,1,30.22,30.16,3,0,4,0.00
2014-8-26,88.2,74.2,60.7,66.3,31.3,3.8,50,21,1,30.21,30.11,4,0,4,0.00
2014-8-27,90.0,76.7,63.0,68.0,33.1,5.7,49,21,1,30.12,29.94,6,1,6,0.00
2014-8-28,82.8,77.4,68.8,61.3,36.4,13.2,51,25,1,30.12,29.91,6,1,6,0.00
2014-8-29,82.4,70.9,60.1,60.0,37.3,3.4,52,32,1,30.25,30.12,4,1,4,0.00
2014-8-30,86.6,75.5,65.9,32.0,15.5,7.8,15,2,1,30.27,30.14,5,1,5,0.00
2014-8-31,92.2,80.0,72.9,66.0,26.1,13.2,44,9,1,30.17,30.01,6,1,6,0.16
2014-9-1,92.9,80.0,74.2,56.8,20.1,14.2,30,3,1,30.07,29.97,6,0,6,0.05
2014-9-2,95.0,84.2,71.8,71.9,39.7,12.4,48,21,1,30.02,29.88,6,1,6,0.00
2014-9-3,87.7,79.3,72.7,65.3,27.9,13.2,48,12,1,30.17,29.93,3,0,3,0.00
2014-9-4,90.7,78.4,66.6,66.0,25.5,8.4,46,10,1,30.21,30.11,5,1,5,0.00
2014-9-5,92.9,80.9,71.5,65.5,26.5,12.1,41,9,1,30.20,30.05,5,1,5,0.00
2014-9-6,93.4,81.0,71.6,69.6,28.9,12.2,47,12,1,30.06,29.88,8,1,8,0.06
2014-9-7,79.9,73.0,66.8,58.3,33.3,8.4,52,25,1,30.21,30.00,5,1,5,0.00
2014-9-8,76.1,71.0,67.7,50.8,23.3,9.3,50,15,1,30.28,30.19,4,1,4,0.00
2014-9-9,79.6,71.6,66.6,18.2,12.2,8.4,1,1,1,30.24,30.12,3,1,4,0.00
2014-9-10,83.0,73.8,67.1,44.5,16.8,8.8,29,5,1,30.17,30.03,4,1,4,0.00
2014-9-11,90.4,74.6,67.7,63.3,17.7,9.3,42,5,1,30.04,29.88,9,2,9,0.00
2014-9-12,77.0,70.3,65.0,56.9,32.3,7.1,51,26,1,30.18,30.01,4,1,4,0.00
2014-9-13,70.9,65.6,58.0,33.5,10.7,1.6,29,5,1,30.26,30.13,4,0,4,0.21
2014-9-14,72.0,61.2,50.0,53.4,20.9,-4.5,53,22,1,30.37,30.24,3,0,3,0.00
2014-9-15,76.5,64.2,53.3,57.1,20.1,-1.9,53,18,1,30.29,30.08,7,1,7,0.00
2014-9-16,77.2,67.7,61.2,56.9,28.1,4.2,53,24,1,30.08,30.01,7,1,7,0.01
2014-9-17,76.3,65.1,53.3,57.0,26.8,-1.9,53,25,1,30.10,29.99,3,0,3,0.00
2014-9-18,78.1,67.7,58.3,57.9,19.7,2.0,51,14,1,30.14,29.99,5,0,5,0.00
2014-9-19,77.4,66.3,57.2,57.4,19.4,1.1,52,15,1,30.34,30.14,4,1,4,0.00
2014-9-20,81.4,69.4,59.2,60.7,23.2,2.7,51,16,1,30.32,30.07,5,1,5,0.00
2014-9-21,84.6,71.3,59.0,64.1,25.2,2.5,50,16,1,30.09,29.68,5,1,5,0.00
2014-9-22,75.4,67.0,58.0,56.3,47.9,40.3,56,50,42,30.27,29.78,6,2,6,0.00
2014-9-23,72.2,60.5,49.7,50.0,36.3,-4.8,55,43,1,30.42,30.26,5,1,5,0.00
2014-9-24,71.3,61.9,52.0,20.7,5.1,-2.9,24,2,1,30.49,30.39,4,1,4,0.02
2014-9-25,65.7,62.5,59.8,7.7,5.2,3.1,1,1,1,30.39,30.25,4,1,4,0.34
2014-9-26,74.7,65.4,58.0,54.7,17.6,1.6,50,13,1,30.30,30.22,4,1,4,0.00
2014-9-27,80.6,66.6,54.7,59.4,22.9,-0.7,52,18,1,30.29,30.20,3,0,3,0.00
2014-9-28,81.0,67.9,56.0,60.7,23.2,0.1,50,17,1,30.24,30.08,5,0,5,0.00
2014-9-29,73.1,66.3,60.8,13.4,8.2,4.0,1,1,1,30.09,29.96,3,0,4,0.00
2014-9-30,76.9,68.7,65.0,16.2,10.0,7.1,1,1,1,29.99,29.89,3,0,3,0.00
2014-10-1,74.3,66.7,63.0,14.2,8.4,5.7,1,1,1,30.08,29.97,3,0,3,0.06
2014-10-2,76.0,68.7,60.5,15.5,10.0,3.7,1,1,1,30.18,30.10,2,0,2,0.00
2014-10-3,70.9,65.2,59.4,11.7,7.3,2.8,1,1,1,30.15,29.74,5,1,5,0.03
2014-10-4,69.7,63.7,51.1,49.0,24.3,4.5,53,24,1,29.85,29.62,6,2,6,0.03
2014-10-5,63.0,54.2,41.8,42.4,27.6,-10.8,55,39,1,30.01,29.86,5,1,8,0.00
2014-10-6,74.2,59.6,44.5,51.6,24.5,-8.8,54,28,1,30.08,29.96,8,2,8,0.00
2014-10-7,72.7,64.5,59.9,48.3,19.2,3.1,54,16,1,30.10,29.92,8,2,8,0.03
2014-10-8,76.5,65.8,57.1,56.3,28.1,1.0,54,26,1,30.06,29.88,7,2,9,0.00
2014-10-9,73.4,63.4,52.0,51.9,37.8,-2.3,54,41,1,30.17,30.06,10,1,10,0.00
2014-10-10,63.7,60.3,53.3,45.8,20.0,-1.9,53,22,1,30.17,30.09,3,0,3,0.06
2014-10-11,57.1,53.9,51.7,1.0,-1.5,-3.2,1,1,1,30.21,30.02,4,0,4,0.34
2014-10-12,65.0,56.6,48.4,35.7,5.8,-5.7,36,8,1,30.33,30.20,4,0,4,0.00
2014-10-13,67.1,61.5,57.2,8.8,4.4,1.1,1,1,1,30.33,30.23,1,0,1,0.13
2014-10-14,84.6,74.1,67.1,27.2,14.1,8.8,13,1,1,30.19,29.99,7,2,7,0.00
2014-10-15,76.7,70.3,61.6,16.1,11.2,4.5,1,1,1,29.99,29.79,13,1,13,1.54
2014-10-16,64.4,61.1,58.3,6.7,4.2,2.0,1,1,1,29.80,29.75,4,1,4,0.02
2014-10-17,71.3,62.0,53.5,51.0,13.9,-1.8,50,12,1,29.86,29.70,7,1,7,0.00
2014-10-18,69.7,59.5,52.4,50.8,25.7,-2.5,57,31,1,29.91,29.66,7,1,7,0.00
2014-10-19,58.7,52.5,47.0,37.9,35.2,30.7,58,52,43,30.16,29.89,6,1,6,0.00
2014-10-20,67.5,54.2,41.4,49.8,21.8,-11.1,54,31,1,30.17,29.96,9,1,9,0.00
2014-10-21,70.0,57.1,48.2,52.1,7.9,-26.5,53,10,1,29.96,29.83,3,0,3,0.29
2014-10-22,54.5,52.8,51.1,-0.9,-2.2,-3.6,1,1,1,29.99,29.88,5,2,5,0.63
2014-10-23,64.3,57.9,51.8,45.8,21.6,-3.1,55,27,1,29.95,29.88,7,2,7,0.00
2014-10-24,67.1,59.0,53.1,47.1,39.0,22.9,56,48,30,30.02,29.92,6,1,6,0.00
2014-10-25,70.7,58.5,47.0,50.1,34.3,-6.7,56,43,1,30.00,29.73,8,1,8,0.00
2014-10-26,68.8,60.4,50.9,44.9,37.5,30.6,55,44,30,29.97,29.70,8,1,8,0.00
2014-10-27,69.5,55.3,42.8,42.7,33.2,-8.4,57,45,2,30.14,29.97,6,1,6,0.00
2014-10-28,79.2,65.8,55.4,58.4,44.2,19.8,54,46,24,30.08,29.96,5,1,5,0.00
2014-10-29,68.4,59.7,48.6,44.7,8.0,-5.5,49,7,1,30.03,29.92,5,1,5,0.02
2014-10-30,60.3,51.8,44.8,42.8,18.9,-8.6,56,31,1,30.11,30.02,5,1,5,0.01
2014-10-31,57.4,48.9,41.2,41.0,16.0,-11.2,56,30,1,30.07,29.86,2,0,2,0.00
2014-11-1,52.2,49.5,46.6,34.3,18.7,-5.1,58,33,1,29.94,29.78,8,2,8,0.00
2014-11-2,50.0,45.7,42.5,32.1,28.0,23.5,58,51,38,30.26,29.92,9,3,9,0.00
2014-11-3,62.6,51.2,41.2,30.5,27.3,23.3,53,41,25,30.37,30.25,7,1,7,0.00
2014-11-4,68.2,50.3,43.9,46.5,33.9,27.6,58,54,42,30.27,30.10,4,0,4,0.00
2014-11-5,67.7,59.2,51.7,49.2,34.4,0.1,57,43,1,30.23,30.10,3,0,3,0.01
2014-11-6,65.3,55.4,51.5,7.4,-0.2,-3.3,12,1,1,30.16,29.68,4,0,4,0.52
2014-11-7,55.8,49.5,39.8,38.6,18.9,-5.9,58,34,1,30.11,29.74,8,2,8,0.00
2014-11-8,52.9,43.1,32.9,34.3,26.3,0.9,60,52,24,30.13,29.95,6,1,6,0.00
2014-11-9,59.2,48.9,40.7,42.0,18.9,-11.6,58,34,1,30.08,29.94,4,0,4,0.00
2014-11-10,63.2,49.7,38.2,46.2,14.1,-13.7,57,26,1,30.20,30.07,5,1,5,0.00
2014-11-11,69.7,55.2,40.1,22.0,0.1,-12.1,17,2,1,30.13,29.92,6,0,6,0.00
2014-11-12,64.4,57.5,43.4,46.2,22.0,2.8,59,28,1,30.17,29.88,7,1,7,0.00
2014-11-13,47.9,42.8,38.0,32.6,26.9,-13.8,62,55,1,30.20,30.08,4,1,5,0.03
2014-11-14,41.6,37.1,31.7,24.8,18.8,-13.2,58,48,1,30.33,30.11,6,2,8,0.00
2014-11-15,37.1,31.9,30.1,23.2,19.1,18.0,61,59,56,30.48,30.33,5,1,5,0.00
2014-11-16,47.3,39.1,33.7,31.2,22.8,-10.4,60,54,1,30.41,30.06,6,1,6,0.02
2014-11-17,48.4,43.8,39.8,26.6,-3.0,-11.6,57,10,1,30.06,29.57,10,1,10,0.31
2014-11-18,39.8,29.3,23.9,25.7,11.3,6.3,58,47,37,30.31,29.81,12,2,12,0.00
2014-11-19,37.1,29.5,19.1,19.2,13.1,7.0,61,50,43,30.40,30.08,12,2,12,0.00
2014-11-20,53.3,41.2,33.5,30.8,22.1,13.9,55,47,39,30.14,29.91,11,3,11,0.00
2014-11-21,37.1,32.0,26.1,14.9,12.4,10.3,57,44,36,30.60,30.14,7,2,7,0.00
2014-11-22,49.3,36.2,22.9,25.0,19.0,11.0,63,50,38,30.60,30.29,10,1,10,0.00
2014-11-23,56.7,48.0,37.1,39.9,24.9,-4.2,58,43,1,30.29,29.81,6,1,6,0.10
2014-11-24,70.6,64.4,53.1,47.6,13.8,-2.1,45,10,1,29.82,29.64,11,3,11,0.07
2014-11-25,65.2,55.1,48.1,40.4,30.7,3.4,59,43,1,30.19,29.80,9,1,9,0.00
2014-11-26,49.1,39.2,33.5,32.7,-6.2,-17.4,54,10,1,30.20,29.92,7,1,7,0.92
2014-11-27,45.4,38.5,33.5,31.0,2.2,-17.4,58,23,1,30.22,30.03,4,1,5,0.00
2014-11-28,39.4,34.4,29.2,26.0,19.7,11.7,62,55,42,30.36,30.21,6,1,6,0.00
2014-11-29,47.2,39.6,29.9,32.1,23.6,10.4,59,53,41,30.37,30.19,7,1,7,0.00
2014-11-30,63.7,51.3,38.5,46.6,35.7,19.0,60,55,42,30.20,30.07,8,2,8,0.00
2014-12-1,70.4,56.2,44.5,51.8,20.8,-6.7,57,27,1,30.51,30.16,7,1,7,0.20
2014-12-2,44.5,37.0,34.6,25.2,-11.0,-16.6,47,6,1,30.63,30.34,4,1,4,0.45
2014-12-3,50.4,43.8,36.5,32.7,-2.2,-14.9,59,11,1,30.35,30.06,8,2,8,0.01
2014-12-4,46.6,40.8,33.1,32.1,20.9,-17.6,60,48,2,30.53,30.35,3,0,5,0.00
2014-12-5,44.5,41.7,40.5,23.9,1.8,-11.1,51,18,1,30.58,30.37,3,0,3,0.01
2014-12-6,49.7,44.7,40.3,-4.8,-8.5,-11.9,1,1,1,30.37,30.06,7,1,7,0.30
2014-12-7,47.5,40.9,35.5,29.1,17.3,-11.9,57,41,1,30.60,30.28,8,2,8,0.00
2014-12-8,37.8,35.1,32.6,25.0,18.3,-16.8,60,52,1,30.63,30.26,6,2,6,0.00
2014-12-9,44.6,37.4,31.5,-8.6,-14.3,-18.8,7,1,1,30.26,29.88,7,2,7,0.30
2014-12-10,48.2,42.8,37.1,33.0,15.6,-11.0,60,40,5,29.90,29.83,9,3,9,0.00
2014-12-11,42.7,38.3,33.7,26.3,21.8,14.5,60,52,35,30.05,29.87,9,2,9,0.00
2014-12-12,44.3,39.6,33.5,27.4,23.1,14.3,61,52,35,30.16,30.04,8,2,8,0.00
2014-12-13,37.8,30.8,29.0,21.2,6.6,-19.3,62,39,6,30.17,30.12,2,0,2,0.00
2014-12-14,54.2,50.8,44.1,37.6,32.2,11.7,54,49,24,30.07,29.98,6,1,6,0.00
2014-12-15,56.0,47.1,39.8,34.1,3.4,-12.5,44,14,1,30.15,30.06,4,0,4,0.00
2014-12-16,45.7,41.3,33.8,-7.7,-11.2,-17.1,1,1,1,30.09,29.89,5,0,5,0.16
2014-12-17,53.6,44.2,37.1,37.6,11.9,-14.5,61,31,1,30.10,29.93,7,2,7,0.00
2014-12-18,40.3,36.9,33.8,25.6,23.9,21.4,61,59,55,30.23,30.10,6,2,6,0.00
2014-12-19,41.2,36.0,31.7,27.8,23.9,20.2,62,61,57,30.30,30.14,8,1,8,0.00
2014-12-20,38.0,33.0,26.1,24.8,19.3,8.8,62,57,45,30.37,30.27,4,0,4,0.00
2014-12-21,43.2,36.1,31.0,28.6,21.9,12.7,62,56,46,30.40,30.31,4,0,5,0.00
2014-12-22,38.0,34.5,30.4,15.7,-3.5,-16.8,46,18,1,30.37,30.10,3,1,3,0.23
2014-12-23,47.3,41.7,35.5,-6.5,-10.9,-15.8,1,1,1,30.11,30.05,3,0,3,0.07
2014-12-24,56.2,49.3,44.8,0.4,-5.0,-8.6,1,1,1,30.06,29.58,4,0,4,0.61
2014-12-25,59.2,49.8,42.8,37.9,18.6,-8.8,58,34,1,30.27,29.58,10,2,10,0.10
2014-12-26,50.9,41.2,32.4,35.4,12.9,-18.1,59,35,1,30.39,30.24,7,1,7,0.00
2014-12-27,57.2,43.3,33.1,41.0,7.6,-17.6,58,25,1,30.34,30.09,2,0,2,0.00
2014-12-28,59.8,51.2,42.8,43.8,5.8,-9.8,56,15,1,30.15,29.94,6,1,6,0.07
2014-12-29,45.2,42.4,40.5,29.7,13.4,-11.8,59,35,1,30.30,30.14,4,1,4,0.06
2014-12-30,40.9,36.4,27.4,27.6,22.0,15.4,62,56,45,30.47,30.29,4,1,4,0.00
2014-12-31,35.5,29.4,24.7,18.6,15.1,12.4,62,55,43,30.49,30.28,5,1,5,0.00
2015-1-1,42.8,32.9,23.0,24.2,18.9,11.7,62,56,45,30.28,30.09,13,2,13,0.00
2015-1-2,47.7,38.0,31.9,29.2,23.6,18.4,61,56,46,30.47,30.12,3,0,3,0.00